Date,TemperatureHighF,TemperatureAvgF,TemperatureLowF,DewpointHighF,DewpointAvgF,DewpointLowF,HumidityHigh,HumidityAvg,HumidityLow,PressureMaxIn,PressureMinIn,WindSpeedMaxMPH,WindSpeedAvgMPH,GustSpeedMaxMPH,PrecipitationSumIn
2013-1-1,63,47,40,45,37,32,86,69,45,30.00,29.91,8,2,8,0.00
2013-1-2,66,46,36,42,34,30,82,66,37,29.94,29.85,5,1,6,0.00
2013-1-3,65,45,37,46,36,32,85,71,42,29.97,29.85,5,1,5,0.00
2013-1-4,68,48,39,43,37,35,85,67,37,29.97,29.88,6,1,6,0.00
2013-1-5,56,49,41,49,43,35,91,81,71,29.94,29.76,8,1,9,0.00
2013-1-6,54,48,43,49,45,40,94,88,80,29.91,29.74,10,2,11,0.12
2013-1-7,66,51,42,55,45,39,96,83,58,29.97,29.85,4,1,4,0.00
2013-1-8,71,52,44,56,46,41,95,79,48,29.94,29.82,4,0,6,0.00
2013-1-9,58,49,44,50,44,38,93,84,74,29.85,29.71,20,3,20,0.05
2013-1-10,59,47,42,41,36,33,83,68,46,29.91,29.76,18,5,18,0.00
2013-1-11,60,47,38,41,36,30,78,65,47,29.97,29.82,13,3,14,0.00
2013-1-12,62,44,37,38,32,24,86,66,34,29.97,29.85,6,1,6,0.00
2013-1-13,61,43,33,34,28,23,75,57,34,29.97,29.88,9,1,9,0.00
2013-1-14,60,44,34,30,23,16,61,44,29,30.12,29.94,9,2,9,0.00
2013-1-15,65,45,35,37,29,26,71,55,33,30.18,30.09,6,1,6,0.00
2013-1-16,66,46,36,40,31,27,74,58,34,30.12,29.97,4,1,5,0.00
2013-1-17,70,50,38,41,34,30,72,57,33,30.00,29.85,8,1,8,0.00
2013-1-18,72,52,40,43,35,30,72,56,32,29.94,29.82,7,1,7,0.00
2013-1-19,72,52,39,43,35,29,73,54,32,29.97,29.85,7,1,7,0.00
2013-1-20,73,52,40,43,35,31,77,56,30,29.94,29.82,6,1,8,0.00
2013-1-21,73,52,40,47,36,31,96,57,33,29.91,29.79,7,1,7,0.00
2013-1-22,71,53,43,44,39,35,73,60,35,29.82,29.71,6,1,6,0.00
2013-1-23,56,52,50,52,46,40,93,79,67,29.79,29.65,6,1,6,0.08
2013-1-24,58,55,52,54,52,50,96,90,82,29.91,29.76,5,1,5,0.04
2013-1-25,74,59,54,62,53,49,96,82,58,29.94,29.76,8,1,8,0.00
2013-1-26,67,54,49,51,45,38,92,73,46,29.82,29.71,18,4,19,0.00
2013-1-27,68,54,47,44,38,34,72,56,35,29.91,29.85,15,5,20,0.00
2013-1-28,68,54,47,47,42,38,76,63,42,30.03,29.88,16,6,18,0.00
2013-1-29,68,53,47,47,42,39,80,68,45,30.06,29.97,10,3,13,0.00
2013-1-30,76,56,45,48,42,39,80,63,33,30.03,29.94,7,1,7,0.00
2013-1-31,74,54,43,50,42,38,86,67,38,30.00,29.88,6,1,6,0.00